Desbarats, Canada
Current Conditions -  °F | °C
As of 8:54 PM on Saturday 25 Oct 2014 (Local Time) from KDRM Reporting Station
Overcast Overcast  
Wind Chill: 51°   Ceiling: 7000
Heat Index: 51°   Visibility: 10mi
Dew Point: 36°   Wind: 10mph
Humidity: 56%   Direction: 300°WNW
Pressure: 29.65"   Gusts: 20mph
Location:  46.33°N, 83.93°W
Report Text: KDRM 260054Z AUTO 30009G17KT 10SM OVC070 11/02 A2965 RMK AO2 T01060021
Loading
Personal Weather Stations






























Interactive Weather Map
Tropical Storm Tracking
New forecast layout! Learn more

10-Day Weather Forecast

Advertisements
Track Severe Weather on mobile